Time;durP1;ratioP1;P1;durP2;ratioP2;P2;SDS_P1;SDS_P2;PMS_P1;PMS_P2;Temp;Humidity;BMP_temperature;BMP_pressure;BME280_temperature;BME280_humidity;BME280_pressure;Samples;Min_cycle;Max_cycle;Signal;HPM_P1;HPM_P2
2020/12/10 00:01:11;;;;;;;10.55;7.20;;;2.50;99.90;;;;;;4991364;28;20422;-77
2020/12/10 00:03:36;;;;;;;11.60;8.20;;;2.60;99.90;;;;;;4992221;28;20387;-76
2020/12/10 00:06:03;;;;;;;8.60;7.20;;;2.10;99.90;;;;;;4991805;28;20395;-77
2020/12/10 00:08:28;;;;;;;11.50;7.95;;;3.00;99.90;;;;;;4991551;28;20418;-76
2020/12/10 00:10:54;;;;;;;8.65;7.07;;;3.80;99.90;;;;;;4991911;28;20771;-76
2020/12/10 00:13:20;;;;;;;9.82;7.05;;;2.10;99.90;;;;;;4989993;28;20398;-77
2020/12/10 00:15:45;;;;;;;9.07;7.30;;;2.50;99.90;;;;;;4991935;28;20393;-77
2020/12/10 00:18:11;;;;;;;8.10;6.70;;;2.80;99.90;;;;;;4991216;28;20417;-77
2020/12/10 00:20:37;;;;;;;10.00;7.40;;;3.80;99.90;;;;;;4992122;28;20460;-76
2020/12/10 00:23:02;;;;;;;9.97;6.93;;;2.40;99.90;;;;;;4991813;28;20394;-78
2020/12/10 00:25:28;;;;;;;11.65;8.10;;;1.90;99.90;;;;;;4990985;28;20898;-77
2020/12/10 00:27:53;;;;;;;9.52;6.90;;;1.50;99.90;;;;;;4991952;28;20747;-77
2020/12/10 00:30:19;;;;;;;8.15;6.60;;;2.00;99.90;;;;;;4994670;28;20504;-77
2020/12/10 00:32:45;;;;;;;10.90;7.10;;;2.90;99.90;;;;;;5010907;28;20392;-77
2020/12/10 00:35:10;;;;;;;8.27;7.00;;;2.80;99.90;;;;;;5010377;28;20411;-78
2020/12/10 00:37:37;;;;;;;9.30;6.80;;;3.50;99.90;;;;;;5011091;28;20377;-77
2020/12/10 00:40:07;;;;;;;10.65;7.45;;;3.20;99.90;;;;;;5011134;28;20830;-77
2020/12/10 00:42:32;;;;;;;8.85;7.10;;;1.80;99.90;;;;;;5010775;28;20790;-77
2020/12/10 00:44:58;;;;;;;7.63;6.50;;;2.10;99.90;;;;;;5011080;28;20380;-77
2020/12/10 00:47:24;;;;;;;9.37;7.03;;;3.60;99.90;;;;;;5010190;28;20393;-78
2020/12/10 00:49:49;;;;;;;9.80;7.20;;;1.80;99.90;;;;;;5011232;28;20376;-77
2020/12/10 00:52:15;;;;;;;10.67;7.27;;;3.40;99.90;;;;;;5010231;28;20916;-77
2020/12/10 00:54:41;;;;;;;9.57;7.00;;;2.00;99.90;;;;;;5010943;28;20388;-77
2020/12/10 00:57:10;;;;;;;9.20;7.50;;;1.70;99.90;;;;;;5010683;28;20410;-78
2020/12/10 00:59:40;;;;;;;10.93;8.20;;;3.20;99.90;;;;;;5009554;28;20952;-76
2020/12/10 01:02:07;;;;;;;10.60;8.20;;;1.50;99.90;;;;;;5010578;28;20435;-78
2020/12/10 01:04:33;;;;;;;8.77;6.35;;;2.10;99.90;;;;;;5009295;28;20951;-76
2020/12/10 01:06:58;;;;;;;11.80;8.30;;;4.30;99.90;;;;;;5010543;28;20395;-76
2020/12/10 01:09:24;;;;;;;11.32;7.50;;;1.60;99.90;;;;;;5010014;28;20507;-76
2020/12/10 01:11:50;;;;;;;9.30;7.50;;;2.60;99.90;;;;;;5010091;28;20396;-76
2020/12/10 01:14:17;;;;;;;9.60;7.43;;;2.00;99.90;;;;;;5009975;28;20381;-77
2020/12/10 01:16:43;;;;;;;11.43;7.90;;;1.50;99.90;;;;;;5010590;28;20393;-77
2020/12/10 01:19:09;;;;;;;8.65;7.57;;;4.40;99.90;;;;;;5010085;28;20389;-78
2020/12/10 01:21:35;;;;;;;10.10;6.97;;;4.40;99.90;;;;;;5012095;28;20380;-77
2020/12/10 01:24:03;;;;;;;10.55;7.55;;;3.40;99.90;;;;;;5014466;28;20440;-77
2020/12/10 01:26:33;;;;;;;9.80;8.00;;;2.20;99.90;;;;;;5014359;28;20473;-77
2020/12/10 01:28:59;;;;;;;9.93;8.18;;;1.80;99.90;;;;;;5015188;28;20396;-76
2020/12/10 01:31:25;;;;;;;10.60;7.80;;;1.60;99.90;;;;;;5001585;28;20441;-76
2020/12/10 01:33:51;;;;;;;10.70;7.82;;;1.50;99.90;;;;;;4995392;28;20889;-76
2020/12/10 01:36:21;;;;;;;12.18;7.80;;;4.80;99.90;;;;;;4994962;28;20731;-77
2020/12/10 01:38:48;;;;;;;10.60;8.05;;;1.20;99.90;;;;;;4994706;28;20383;-77
2020/12/10 01:41:14;;;;;;;10.35;7.63;;;1.60;99.90;;;;;;4993688;28;20941;-77
2020/12/10 01:43:41;;;;;;;12.63;7.67;;;3.50;99.90;;;;;;4994989;28;20453;-77
2020/12/10 01:46:07;;;;;;;12.98;8.00;;;3.10;99.90;;;;;;4995011;28;20398;-77
2020/12/10 01:48:34;;;;;;;12.00;7.68;;;3.80;99.90;;;;;;4994697;28;20936;-77
2020/12/10 01:51:00;;;;;;;10.38;7.75;;;1.90;99.90;;;;;;4994974;28;20390;-77
2020/12/10 01:53:26;;;;;;;12.45;8.00;;;1.60;99.90;;;;;;4994354;28;20482;-77
2020/12/10 01:55:52;;;;;;;10.55;7.82;;;1.60;99.90;;;;;;4994534;28;20918;-77
2020/12/10 01:58:18;;;;;;;9.57;6.60;;;1.50;99.90;;;;;;4994671;28;20492;-77
2020/12/10 02:00:44;;;;;;;11.05;7.50;;;1.60;99.90;;;;;;4994809;28;20569;-77
2020/12/10 02:03:10;;;;;;;9.90;7.35;;;2.90;99.90;;;;;;4993778;28;20993;-77
2020/12/10 02:05:46;;;;;;;9.90;7.90;;;1.80;99.90;;;;;;4994771;28;20470;-76
2020/12/10 02:08:12;;;;;;;10.77;7.93;;;1.70;99.90;;;;;;4992951;28;20481;-77
2020/12/10 02:10:38;;;;;;;9.57;7.40;;;4.50;99.90;;;;;;4994296;28;20954;-76
2020/12/10 02:13:03;;;;;;;10.88;7.20;;;1.50;99.90;;;;;;4994504;28;20676;-76
2020/12/10 02:15:33;;;;;;;10.63;7.30;;;1.40;99.90;;;;;;4992358;28;21073;-77
2020/12/10 02:18:00;;;;;;;10.98;7.90;;;1.50;99.90;;;;;;4994107;28;20391;-77
2020/12/10 02:20:25;;;;;;;10.30;7.65;;;2.30;99.90;;;;;;4993553;28;20835;-77
2020/12/10 02:23:02;;;;;;;10.73;7.63;;;1.20;99.90;;;;;;4993795;28;20429;-76
2020/12/10 02:25:30;;;;;;;10.57;8.40;;;1.30;99.90;;;;;;4993587;28;20509;-77
2020/12/10 02:27:59;;;;;;;12.48;7.70;;;1.00;99.90;;;;;;4994031;28;20935;-77
2020/12/10 02:30:26;;;;;;;12.18;7.63;;;1.10;99.90;;;;;;4997825;28;20405;-77
2020/12/10 02:33:05;;;;;;;10.48;7.18;;;1.40;99.90;;;;;;5013216;28;20849;-77
2020/12/10 02:35:32;;;;;;;10.90;7.50;;;1.20;99.90;;;;;;5012501;28;20648;-77
2020/12/10 02:37:59;;;;;;;9.60;7.10;;;1.10;99.90;;;;;;5013624;28;20392;-77
2020/12/10 02:40:27;;;;;;;11.20;7.77;;;1.30;99.90;;;;;;5012585;28;20421;-77
2020/12/10 02:42:55;;;;;;;11.20;8.43;;;4.30;99.90;;;;;;5012073;28;20396;-78
2020/12/10 02:45:21;;;;;;;11.23;6.90;;;1.00;99.90;;;;;;5013017;28;20381;-77
2020/12/10 02:47:47;;;;;;;9.30;7.90;;;2.70;99.90;;;;;;5013225;28;20377;-77
2020/12/10 02:50:13;;;;;;;10.73;7.50;;;1.20;99.90;;;;;;5012874;28;20788;-79
2020/12/10 02:52:39;;;;;;;10.07;7.57;;;1.20;99.90;;;;;;5013538;28;20460;-77
2020/12/10 02:55:05;;;;;;;10.48;7.15;;;1.10;99.90;;;;;;5013095;28;20924;-78
2020/12/10 02:57:31;;;;;;;8.63;6.68;;;2.50;99.90;;;;;;5011896;28;20423;-77
2020/12/10 02:59:56;;;;;;;8.50;6.57;;;1.50;99.90;;;;;;5013186;28;20761;-78
2020/12/10 03:02:22;;;;;;;8.82;5.93;;;0.90;99.90;;;;;;5012320;28;20387;-78
2020/12/10 03:04:48;;;;;;;10.32;7.32;;;1.90;99.90;;;;;;5013265;28;20388;-77
2020/12/10 03:07:14;;;;;;;11.10;7.38;;;1.20;99.90;;;;;;5012955;28;20792;-79
2020/12/10 03:09:43;;;;;;;10.10;6.78;;;1.50;99.90;;;;;;5013162;28;20413;-77
2020/12/10 03:12:10;;;;;;;9.80;7.25;;;1.20;99.90;;;;;;5013232;28;20373;-77
2020/12/10 03:14:36;;;;;;;9.38;6.40;;;2.40;99.90;;;;;;5011936;28;20935;-77
2020/12/10 03:17:02;;;;;;;8.23;6.00;;;1.20;99.90;;;;;;5013168;28;20388;-77
2020/12/10 03:19:28;;;;;;;9.82;6.53;;;4.70;99.90;;;;;;5011796;28;20560;-78
2020/12/10 03:21:54;;;;;;;6.03;5.07;;;1.10;99.90;;;;;;5012520;28;20468;-78
2020/12/10 03:24:19;;;;;;;6.40;4.87;;;1.20;99.90;;;;;;5012086;28;20416;-77
2020/12/10 03:26:45;;;;;;;6.90;4.77;;;4.20;99.90;;;;;;5012521;28;20940;-77
2020/12/10 03:29:10;;;;;;;6.30;5.40;;;1.40;99.90;;;;;;5012713;28;20385;-77
2020/12/10 03:31:39;;;;;;;6.15;5.07;;;1.90;99.90;;;;;;4997659;28;20399;-77
2020/12/10 03:34:05;;;;;;;6.45;5.35;;;1.20;99.90;;;;;;4993098;28;20469;-77
2020/12/10 03:36:49;;;;;;;6.05;5.05;;;1.00;99.90;;;;;;4992319;28;20458;-77
2020/12/10 03:39:15;;;;;;;6.63;5.20;;;1.00;99.90;;;;;;4992428;28;20470;-78
2020/12/10 03:41:42;;;;;;;8.45;5.50;;;1.40;99.90;;;;;;4991317;28;20486;-77
2020/12/10 03:44:08;;;;;;;6.70;5.50;;;1.10;99.90;;;;;;4991763;28;20394;-77
2020/12/10 03:46:33;;;;;;;7.93;5.00;;;1.40;99.90;;;;;;4992089;28;21246;-77
2020/12/10 03:49:00;;;;;;;6.20;4.77;;;3.30;99.90;;;;;;4992388;28;20748;-76
2020/12/10 03:51:25;;;;;;;7.25;5.30;;;3.20;99.90;;;;;;4991879;28;20395;-77
2020/12/10 03:53:51;;;;;;;7.20;5.00;;;1.10;99.90;;;;;;4992497;28;20433;-77
2020/12/10 03:56:16;;;;;;;7.57;4.83;;;3.30;99.90;;;;;;4992192;28;20736;-79
2020/12/10 03:58:42;;;;;;;6.83;5.10;;;0.10;99.90;;;;;;4990975;28;20940;-77
2020/12/10 04:01:08;;;;;;;6.90;4.93;;;3.30;99.90;;;;;;4992522;28;20418;-77
2020/12/10 04:03:33;;;;;;;6.10;4.80;;;3.60;99.90;;;;;;4991480;28;20390;-78
2020/12/10 04:05:59;;;;;;;6.75;4.95;;;2.50;99.90;;;;;;4992292;28;20779;-77
2020/12/10 04:08:24;;;;;;;6.40;4.80;;;1.60;99.90;;;;;;4991627;28;20391;-77
2020/12/10 04:10:50;;;;;;;6.18;4.85;;;1.50;99.90;;;;;;4992351;28;20382;-78
2020/12/10 04:13:16;;;;;;;6.28;4.93;;;1.60;99.90;;;;;;4992154;28;20395;-79
2020/12/10 04:15:41;;;;;;;7.47;5.20;;;2.20;99.90;;;;;;4990553;28;20479;-77
2020/12/10 04:18:07;;;;;;;5.67;4.73;;;4.20;99.90;;;;;;4992639;28;20394;-78
2020/12/10 04:20:33;;;;;;;7.20;4.97;;;1.50;99.90;;;;;;4992484;28;20422;-78
2020/12/10 04:22:58;;;;;;;6.37;4.60;;;1.60;99.90;;;;;;4992478;28;20398;-78
2020/12/10 04:25:24;;;;;;;7.43;5.15;;;2.80;99.90;;;;;;4990792;28;20902;-78
2020/12/10 04:27:49;;;;;;;6.85;5.15;;;3.40;99.90;;;;;;4992514;28;20399;-77
2020/12/10 04:30:20;;;;;;;6.13;5.10;;;2.90;99.90;;;;;;4990775;28;20453;-77
2020/12/10 04:32:49;;;;;;;5.93;4.30;;;4.10;99.90;;;;;;4992380;28;20385;-77
2020/12/10 04:35:15;;;;;;;6.90;5.00;;;3.90;99.90;;;;;;4992076;28;20690;-78
2020/12/10 04:37:41;;;;;;;6.70;4.35;;;3.70;99.90;;;;;;4990702;28;20402;-77
2020/12/10 04:40:08;;;;;;;7.05;4.10;;;3.00;99.90;;;;;;4990615;28;20993;-78
2020/12/10 04:42:34;;;;;;;7.25;4.78;;;4.40;99.90;;;;;;4991317;28;20383;-78
2020/12/10 04:45:00;;;;;;;6.53;4.63;;;1.80;99.90;;;;;;4991852;28;20382;-78
2020/12/10 04:47:28;;;;;;;6.75;4.60;;;3.80;99.90;;;;;;4991346;28;20874;-78
2020/12/10 04:49:54;;;;;;;5.72;4.05;;;3.00;99.90;;;;;;4990715;28;21022;-78
2020/12/10 04:52:22;;;;;;;6.67;4.70;;;1.50;99.90;;;;;;4991522;28;20394;-79
2020/12/10 04:54:49;;;;;;;6.43;4.93;;;1.60;99.90;;;;;;4991626;28;20662;-78
2020/12/10 04:57:17;;;;;;;5.40;4.30;;;1.80;99.90;;;;;;4991097;28;20437;-77
2020/12/10 04:59:43;;;;;;;5.53;4.32;;;3.30;99.90;;;;;;4990733;28;20449;-77
2020/12/10 05:02:12;;;;;;;6.72;4.40;;;3.40;99.90;;;;;;4989968;28;20390;-77
2020/12/10 05:04:39;;;;;;;6.05;4.32;;;1.60;99.90;;;;;;4990958;28;20419;-77
2020/12/10 05:07:05;;;;;;;5.63;3.75;;;4.00;99.90;;;;;;4991787;28;20382;-77
2020/12/10 05:09:31;;;;;;;5.20;4.43;;;1.50;99.90;;;;;;4989503;28;20861;-78
2020/12/10 05:11:57;;;;;;;5.22;3.97;;;3.60;99.90;;;;;;4990337;28;20402;-77
2020/12/10 05:14:23;;;;;;;7.37;4.37;;;2.60;99.90;;;;;;4989659;28;20387;-79
2020/12/10 05:17:13;;;;;;;5.00;4.22;;;3.70;99.90;;;;;;4991562;28;20422;-77
2020/12/10 05:19:39;;;;;;;6.00;4.50;;;1.80;99.90;;;;;;4990775;28;20740;-78
2020/12/10 05:22:07;;;;;;;6.28;4.40;;;2.90;99.90;;;;;;4991908;28;20390;-77
2020/12/10 05:24:33;;;;;;;5.03;4.10;;;1.40;99.90;;;;;;4990608;28;20415;-77
2020/12/10 05:27:19;;;;;;;4.47;3.53;;;1.10;99.90;;;;;;4991443;28;20390;-77
2020/12/10 05:29:45;;;;;;;5.50;4.50;;;1.30;99.90;;;;;;4990807;28;20394;-77
2020/12/10 05:32:29;;;;;;;5.47;3.90;;;3.30;99.90;;;;;;5010308;28;20405;-77
2020/12/10 05:34:55;;;;;;;4.13;3.45;;;0.70;99.90;;;;;;5011139;28;20737;-77
2020/12/10 05:37:29;;;;;;;4.10;2.80;;;1.40;99.90;;;;;;5010779;28;20388;-78
2020/12/10 05:40:01;;;;;;;5.47;3.90;;;1.00;99.90;;;;;;5011015;28;20841;-78
2020/12/10 05:42:37;;;;;;;4.77;3.47;;;2.40;99.90;;;;;;5010597;28;20420;-78
2020/12/10 05:45:29;;;;;;;5.70;3.30;;;0.70;99.90;;;;;;5010871;28;20396;-78
2020/12/10 05:47:57;;;;;;;5.10;3.17;;;1.20;99.90;;;;;;5009502;28;20420;-78
2020/12/10 05:50:26;;;;;;;4.60;3.80;;;2.70;99.90;;;;;;5010491;28;20401;-79
2020/12/10 05:53:08;;;;;;;4.87;3.63;;;0.70;99.90;;;;;;5011107;28;20466;-78
2020/12/10 05:55:42;;;;;;;4.50;3.50;;;1.80;99.90;;;;;;5009855;28;20928;-76
2020/12/10 05:58:08;;;;;;;5.00;3.40;;;0.90;99.90;;;;;;5011054;28;20396;-77
2020/12/10 06:00:35;;;;;;;4.10;3.30;;;2.60;99.90;;;;;;5009844;28;20416;-79
2020/12/10 06:03:02;;;;;;;3.43;3.00;;;2.20;99.90;;;;;;5010833;28;20472;-78
2020/12/10 06:05:28;;;;;;;3.70;3.20;;;0.80;99.90;;;;;;5009930;28;20405;-79
2020/12/10 06:08:03;;;;;;;3.47;3.17;;;0.60;99.90;;;;;;5011643;28;20792;-78
2020/12/10 06:10:31;;;;;;;4.57;3.27;;;3.10;99.90;;;;;;5013445;28;20420;-79
2020/12/10 06:12:58;;;;;;;4.47;3.33;;;1.60;99.90;;;;;;5014638;28;20399;-78
2020/12/10 06:15:26;;;;;;;4.82;3.35;;;0.20;99.90;;;;;;5014270;28;20392;-80
2020/12/10 06:18:03;;;;;;;4.85;3.58;;;0.20;99.90;;;;;;5013707;28;20384;-78
2020/12/10 06:20:45;;;;;;;4.40;3.28;;;0.10;99.90;;;;;;5013282;28;20897;-77
2020/12/10 06:23:23;;;;;;;5.50;3.78;;;0.50;99.90;;;;;;5012728;28;20869;-77
2020/12/10 06:25:52;;;;;;;5.40;3.55;;;1.60;99.90;;;;;;5013147;28;20429;-78
2020/12/10 06:28:22;;;;;;;4.68;3.40;;;0.60;99.90;;;;;;5013949;28;20465;-77
2020/12/10 06:31:06;;;;;;;5.80;3.58;;;0.40;99.90;;;;;;5005344;28;20418;-77
2020/12/10 06:33:49;;;;;;;4.45;3.60;;;0.30;99.90;;;;;;4993705;28;20387;-77
2020/12/10 06:36:23;;;;;;;4.90;3.30;;;0.10;99.90;;;;;;4993768;28;20790;-76
2020/12/10 06:38:52;;;;;;;4.47;3.45;;;0.40;99.90;;;;;;4993538;28;20413;-76
2020/12/10 06:41:18;;;;;;;5.00;3.80;;;0.30;99.90;;;;;;4994088;28;20410;-77
2020/12/10 06:43:44;;;;;;;5.00;3.50;;;0.40;99.90;;;;;;4993532;28;20477;-77
2020/12/10 06:46:10;;;;;;;6.07;3.93;;;2.30;99.90;;;;;;4994046;28;20786;-76
2020/12/10 06:48:41;;;;;;;4.25;3.45;;;2.20;99.90;;;;;;4992018;28;20403;-76
2020/12/10 06:51:16;;;;;;;4.85;3.70;;;1.50;99.90;;;;;;4994083;28;20914;-77
2020/12/10 06:54:00;;;;;;;4.35;3.60;;;0.40;99.90;;;;;;4994127;28;20431;-77
2020/12/10 06:56:31;;;;;;;4.32;3.35;;;-0.30;99.90;;;;;;4993871;28;20383;-79
2020/12/10 06:59:01;;;;;;;4.07;3.50;;;3.50;99.90;;;;;;4993846;28;20409;-78
2020/12/10 07:01:42;;;;;;;5.22;4.28;;;2.30;99.90;;;;;;4993857;28;20446;-79
2020/12/10 07:04:17;;;;;;;5.00;3.28;;;0.90;99.90;;;;;;4993383;28;20469;-79
2020/12/10 07:06:43;;;;;;;5.30;3.70;;;0.10;99.90;;;;;;4991207;28;20867;-78
2020/12/10 07:09:13;;;;;;;6.00;4.72;;;0.30;99.90;;;;;;4993709;28;20386;-78
2020/12/10 07:11:40;;;;;;;6.60;4.57;;;0.10;99.90;;;;;;4993050;28;20399;-79
2020/12/10 07:14:23;;;;;;;5.18;4.22;;;2.80;99.90;;;;;;4993370;28;20426;-78
2020/12/10 07:16:49;;;;;;;5.70;4.30;;;-0.20;99.90;;;;;;4993187;28;20391;-79
2020/12/10 07:19:15;;;;;;;4.85;4.35;;;0.30;99.90;;;;;;4992559;28;20470;-79
2020/12/10 07:21:40;;;;;;;4.82;3.88;;;0.60;99.90;;;;;;4993155;28;20442;-79
2020/12/10 07:24:06;;;;;;;5.67;4.20;;;0.40;99.90;;;;;;4993574;28;20766;-79
2020/12/10 07:26:32;;;;;;;4.97;4.43;;;0.10;99.90;;;;;;4993519;28;20383;-79
2020/12/10 07:28:57;;;;;;;6.40;4.85;;;0.50;99.90;;;;;;4992711;28;20407;-79
2020/12/10 07:31:23;;;;;;;5.63;4.43;;;0.80;99.90;;;;;;5005596;28;20415;-79
2020/12/10 07:33:54;;;;;;;4.70;3.70;;;0.40;99.90;;;;;;5012676;28;20424;-79
2020/12/10 07:36:20;;;;;;;5.47;4.10;;;0.80;99.90;;;;;;5013037;28;20377;-79
2020/12/10 07:38:46;;;;;;;4.40;3.53;;;0.40;99.90;;;;;;5012299;28;20393;-79
2020/12/10 07:41:11;;;;;;;4.70;3.70;;;0.80;99.90;;;;;;5012336;28;20417;-79
2020/12/10 07:43:49;;;;;;;3.97;3.50;;;0.90;99.90;;;;;;5010616;28;20416;-78
2020/12/10 07:46:15;;;;;;;4.57;3.77;;;1.20;99.90;;;;;;5011235;28;20420;-78
2020/12/10 07:48:42;;;;;;;8.35;5.70;;;3.00;99.90;;;;;;5011835;28;20734;-78
2020/12/10 07:51:08;;;;;;;4.27;3.80;;;3.30;99.90;;;;;;5010896;28;20397;-77
2020/12/10 07:53:34;;;;;;;4.82;3.60;;;0.80;99.90;;;;;;5010693;28;20496;-78
2020/12/10 07:56:03;;;;;;;4.53;3.90;;;0.50;99.90;;;;;;5012646;28;20481;-78
2020/12/10 07:58:48;;;;;;;3.90;3.05;;;1.50;99.90;;;;;;5012526;28;20432;-76
2020/12/10 08:01:14;;;;;;;3.15;2.85;;;0.80;99.90;;;;;;5012479;28;20420;-77
2020/12/10 08:03:45;;;;;;;3.80;2.87;;;2.60;99.90;;;;;;5012106;28;20381;-76
2020/12/10 08:06:13;;;;;;;4.38;3.40;;;2.80;99.90;;;;;;5012422;28;20777;-76
2020/12/10 08:08:46;;;;;;;4.50;3.20;;;2.60;99.90;;;;;;5011921;28;20384;-76
2020/12/10 08:11:19;;;;;;;3.28;2.90;;;1.20;99.90;;;;;;5012064;28;20392;-76
2020/12/10 08:14:07;;;;;;;3.63;3.22;;;0.90;99.90;;;;;;5011833;28;20393;-77
2020/12/10 08:16:44;;;;;;;3.78;3.47;;;1.20;99.90;;;;;;5011758;28;20396;-77
2020/12/10 08:19:15;;;;;;;3.90;2.50;;;1.20;99.90;;;;;;5011961;28;20503;-78
2020/12/10 08:21:42;;;;;;;3.55;3.00;;;1.10;99.90;;;;;;5011682;28;20416;-78
2020/12/10 08:24:14;;;;;;;3.00;2.70;;;1.30;99.90;;;;;;5011578;28;20419;-78
2020/12/10 08:26:41;;;;;;;3.60;2.50;;;1.30;99.90;;;;;;5009649;28;20413;-77
2020/12/10 08:29:07;;;;;;;3.58;3.28;;;;;;;;;;5011858;28;20731;-78
2020/12/10 08:31:34;;;;;;;3.60;2.90;;;1.20;99.90;;;;;;4997029;28;20747;-78
2020/12/10 08:34:00;;;;;;;3.50;3.20;;;1.30;99.90;;;;;;4992170;28;20386;-77
2020/12/10 08:36:34;;;;;;;3.87;3.40;;;3.50;99.90;;;;;;4992422;28;20858;-78
2020/12/10 08:39:04;;;;;;;4.20;2.90;;;1.30;99.90;;;;;;4992047;28;20725;-77
2020/12/10 08:41:35;;;;;;;4.07;3.20;;;3.80;99.90;;;;;;4991182;28;20449;-78
2020/12/10 08:44:06;;;;;;;4.20;2.85;;;1.50;99.90;;;;;;4991927;28;20493;-77
2020/12/10 08:46:34;;;;;;;2.97;2.67;;;3.50;99.90;;;;;;4996648;28;20408;-78
2020/12/10 08:49:17;;;;;;;2.95;2.58;;;1.60;99.90;;;;;;5011032;28;20892;-78
2020/12/10 08:51:44;;;;;;;4.43;2.58;;;1.50;99.90;;;;;;5009055;28;20423;-79
2020/12/10 08:54:10;;;;;;;3.00;2.63;;;1.40;99.90;;;;;;5007520;28;20520;-78
2020/12/10 08:56:38;;;;;;;3.60;2.88;;;1.70;99.90;;;;;;4992250;28;20387;-78
2020/12/10 08:59:05;;;;;;;3.33;3.03;;;1.60;99.90;;;;;;4990123;28;20833;-77
2020/12/10 09:01:32;;;;;;;4.43;2.60;;;3.50;99.90;;;;;;4994595;28;20505;-78
2020/12/10 09:03:58;;;;;;;2.55;2.30;;;1.70;99.90;;;;;;4992146;28;20396;-77
2020/12/10 09:06:35;;;;;;;3.90;3.10;;;3.90;99.90;;;;;;4991194;28;20456;-77
2020/12/10 09:09:03;;;;;;;3.05;2.67;;;1.80;99.90;;;;;;4990551;28;20386;-77
2020/12/10 09:11:28;;;;;;;3.47;3.00;;;2.00;99.90;;;;;;4992998;28;20400;-77
2020/12/10 09:13:58;;;;;;;3.55;3.00;;;2.20;99.90;;;;;;4993879;28;21246;-77
2020/12/10 09:16:24;;;;;;;2.73;2.33;;;2.50;99.90;;;;;;4989262;28;20408;-77
2020/12/10 09:18:51;;;;;;;3.55;3.20;;;2.20;99.90;;;;;;4990800;28;20418;-78
2020/12/10 09:21:16;;;;;;;5.23;2.73;;;2.10;99.90;;;;;;4994305;28;20765;-78
2020/12/10 09:23:46;;;;;;;3.20;2.10;;;2.00;99.90;;;;;;5004738;28;20413;-77
2020/12/10 09:26:13;;;;;;;2.95;2.50;;;1.90;99.90;;;;;;4989002;28;20544;-78
2020/12/10 09:28:42;;;;;;;2.58;2.05;;;2.20;99.90;;;;;;4996363;28;20401;-77
2020/12/10 09:31:08;;;;;;;3.20;2.60;;;2.20;99.90;;;;;;4995642;28;20404;-79
2020/12/10 09:33:35;;;;;;;2.20;1.92;;;2.30;99.90;;;;;;4991655;28;20385;-78
2020/12/10 09:36:03;;;;;;;3.33;2.10;;;2.50;99.90;;;;;;4992887;28;20389;-78
2020/12/10 09:38:29;;;;;;;1.80;1.70;;;2.00;99.90;;;;;;4994018;28;20497;-78
2020/12/10 09:40:55;;;;;;;2.90;2.40;;;2.10;99.90;;;;;;4991398;28;20422;-78
2020/12/10 09:43:23;;;;;;;3.38;2.10;;;2.70;99.90;;;;;;4997321;28;20891;-78
2020/12/10 09:45:57;;;;;;;2.90;2.20;;;2.00;99.90;;;;;;4995000;28;20377;-79
2020/12/10 09:48:23;;;;;;;2.58;2.38;;;2.20;99.90;;;;;;4997114;28;21016;-77
2020/12/10 09:50:48;;;;;;;2.40;2.20;;;3.30;99.90;;;;;;4995603;28;20472;-77
2020/12/10 09:53:26;;;;;;;3.35;2.17;;;4.00;99.90;;;;;;4996581;28;20498;-78
2020/12/10 09:58:21;;;;;;;2.10;1.88;;;2.20;99.90;;;;;;4995098;28;20826;-78
2020/12/10 10:00:49;;;;;;;2.17;1.98;;;2.00;99.90;;;;;;4993619;28;20431;-78
2020/12/10 10:03:19;;;;;;;2.87;2.40;;;2.10;99.90;;;;;;4995211;28;20375;-78
2020/12/10 10:05:45;;;;;;;2.25;1.85;;;2.20;99.90;;;;;;4989509;28;20493;-77
2020/12/10 10:08:12;;;;;;;2.80;2.20;;;2.20;99.90;;;;;;4992834;28;20397;-77
2020/12/10 10:10:38;;;;;;;2.08;1.85;;;2.40;99.90;;;;;;4998697;28;20397;-77
2020/12/10 10:13:04;;;;;;;2.10;1.90;;;2.20;99.90;;;;;;4994804;28;20488;-76
2020/12/10 10:15:31;;;;;;;2.55;2.17;;;2.50;99.90;;;;;;4993172;28;20397;-77
2020/12/10 10:17:57;;;;;;;3.42;2.40;;;2.10;99.90;;;;;;5012361;28;20392;-77
2020/12/10 10:20:23;;;;;;;3.00;2.40;;;2.20;99.90;;;;;;5013904;28;20409;-77
2020/12/10 10:22:49;;;;;;;2.80;2.20;;;2.10;99.90;;;;;;5012581;28;20415;-77
2020/12/10 10:25:15;;;;;;;3.47;2.70;;;2.20;99.90;;;;;;5012927;28;20443;-77
2020/12/10 10:27:40;;;;;;;3.47;2.65;;;2.20;99.90;;;;;;5011762;28;20443;-76
2020/12/10 10:30:07;;;;;;;3.83;2.78;;;3.70;99.90;;;;;;5010715;28;20407;-78
2020/12/10 10:32:34;;;;;;;5.65;2.83;;;1.80;99.90;;;;;;4993469;28;20378;-77
2020/12/10 10:35:00;;;;;;;3.70;3.30;;;2.60;99.90;;;;;;4992550;28;20426;-76
2020/12/10 10:37:25;;;;;;;2.75;2.55;;;3.00;99.90;;;;;;4993059;28;20401;-77
2020/12/10 10:39:51;;;;;;;3.03;2.67;;;4.20;99.90;;;;;;4992561;28;20410;-76
2020/12/10 10:42:17;;;;;;;4.55;3.17;;;2.50;99.90;;;;;;4993140;28;20383;-76
2020/12/10 10:44:43;;;;;;;4.75;3.50;;;2.20;99.90;;;;;;4992498;28;20413;-76
2020/12/10 10:47:08;;;;;;;4.47;3.50;;;2.00;99.90;;;;;;4993418;28;20390;-76
2020/12/10 10:49:34;;;;;;;5.30;3.60;;;2.40;99.90;;;;;;4994232;28;20383;-76
2020/12/10 10:52:00;;;;;;;3.60;3.30;;;5.70;99.90;;;;;;4992866;28;20657;-77
2020/12/10 10:54:25;;;;;;;4.10;3.50;;;4.10;99.90;;;;;;4993011;28;20390;-77
2020/12/10 10:56:51;;;;;;;4.57;3.63;;;3.00;99.90;;;;;;4992855;28;20379;-77
2020/12/10 10:59:17;;;;;;;3.97;3.58;;;3.20;99.90;;;;;;4993585;28;20453;-77
2020/12/10 11:01:42;;;;;;;4.40;3.50;;;3.10;99.90;;;;;;4993120;28;20540;-77
2020/12/10 11:04:20;;;;;;;3.70;3.10;;;;;;;;;;4993248;28;20930;-77
2020/12/10 11:07:19;;;;;;;4.03;3.65;;;;;;;;;;4993184;28;20488;-77
2020/12/10 11:09:45;;;;;;;6.30;3.63;;;3.90;99.90;;;;;;4993278;28;20867;-76
2020/12/10 11:12:13;;;;;;;4.20;3.80;;;3.10;99.90;;;;;;4993888;28;20395;-77
2020/12/10 11:14:39;;;;;;;5.25;4.10;;;3.70;99.90;;;;;;4994245;28;20865;-77
2020/12/10 11:17:11;;;;;;;4.10;3.70;;;5.50;99.90;;;;;;4992145;28;20379;-77
2020/12/10 11:19:37;;;;;;;3.33;3.00;;;;;;;;;;4993313;28;20882;-77
2020/12/10 11:22:03;;;;;;;4.60;4.10;;;3.70;99.90;;;;;;4993171;28;20478;-77
2020/12/10 11:24:32;;;;;;;6.60;4.50;;;4.00;99.90;;;;;;4993445;28;20501;-77
2020/12/10 11:26:57;;;;;;;7.30;4.97;;;3.70;99.90;;;;;;4992927;28;20395;-77
2020/12/10 11:29:26;;;;;;;5.80;4.70;;;3.40;99.90;;;;;;4992741;28;20474;-77
2020/12/10 11:31:55;;;;;;;6.85;4.90;;;3.30;99.90;;;;;;5009024;28;20420;-77
2020/12/10 11:34:21;;;;;;;6.60;5.22;;;3.20;99.90;;;;;;5013031;28;20377;-77
2020/12/10 11:36:47;;;;;;;8.73;5.55;;;;;;;;;;5012525;28;20385;-78
2020/12/10 11:39:17;;;;;;;5.93;4.60;;;3.70;99.90;;;;;;5011750;28;20404;-76
2020/12/10 11:41:45;;;;;;;7.47;5.43;;;3.10;99.90;;;;;;5012543;28;20405;-77
2020/12/10 11:44:11;;;;;;;7.07;4.85;;;3.90;99.90;;;;;;5012346;28;20386;-76
2020/12/10 11:46:40;;;;;;;5.57;4.63;;;4.10;99.90;;;;;;5012918;28;20468;-77
2020/12/10 11:49:05;;;;;;;6.38;4.68;;;3.20;99.90;;;;;;5011872;28;20376;-76
2020/12/10 11:51:37;;;;;;;5.68;4.72;;;3.50;99.90;;;;;;5012670;28;20721;-76
2020/12/10 11:54:03;;;;;;;6.18;4.60;;;3.70;99.90;;;;;;5011889;28;20417;-76
2020/12/10 11:56:29;;;;;;;7.20;5.10;;;;;;;;;;5012759;28;20400;-78
2020/12/10 11:58:55;;;;;;;7.30;5.18;;;3.50;99.90;;;;;;5011543;28;20396;-76
2020/12/10 12:01:21;;;;;;;7.20;5.82;;;3.60;99.90;;;;;;5012590;28;20556;-76
2020/12/10 12:03:46;;;;;;;8.40;5.50;;;5.90;99.90;;;;;;5011645;28;20530;-78
2020/12/10 12:06:12;;;;;;;7.97;6.40;;;3.80;99.90;;;;;;5010956;28;20461;-77
2020/12/10 12:08:37;;;;;;;7.80;4.97;;;4.80;99.90;;;;;;5011841;28;20384;-77
2020/12/10 12:11:03;;;;;;;8.40;5.90;;;5.70;99.90;;;;;;5011215;28;20476;-77
2020/12/10 12:13:29;;;;;;;7.73;5.30;;;3.60;99.90;;;;;;5011468;28;20877;-77
2020/12/10 12:15:55;;;;;;;8.13;5.68;;;2.90;99.90;;;;;;5010708;28;20393;-76
2020/12/10 12:18:21;;;;;;;7.55;5.43;;;3.70;99.90;;;;;;5011843;28;20472;-75
2020/12/10 12:20:47;;;;;;;7.43;6.22;;;3.00;99.90;;;;;;5011554;28;20409;-77
2020/12/10 12:23:13;;;;;;;7.45;5.90;;;2.80;99.90;;;;;;5011078;28;20403;-77
2020/12/10 12:25:39;;;;;;;9.20;6.60;;;3.30;99.90;;;;;;5011819;28;20409;-77
2020/12/10 12:28:05;;;;;;;9.00;5.72;;;3.60;99.90;;;;;;5010991;28;20436;-77
2020/12/10 12:30:33;;;;;;;8.07;6.80;;;3.80;99.90;;;;;;5006395;28;20397;-77
2020/12/10 12:32:59;;;;;;;10.52;7.05;;;3.50;99.90;;;;;;4991181;28;20795;-77
2020/12/10 12:35:25;;;;;;;8.70;5.90;;;3.70;99.90;;;;;;4991922;28;20382;-77
2020/12/10 12:37:51;;;;;;;9.82;6.20;;;3.70;99.90;;;;;;5002960;28;20437;-77
2020/12/10 12:40:17;;;;;;;7.83;6.23;;;3.70;99.90;;;;;;5010376;28;20502;-77
2020/12/10 12:42:43;;;;;;;8.05;6.80;;;3.90;99.90;;;;;;5010701;28;20750;-77
2020/12/10 12:45:11;;;;;;;9.70;6.40;;;3.80;99.90;;;;;;5010285;28;20423;-77
2020/12/10 12:47:36;;;;;;;10.30;6.65;;;3.80;99.90;;;;;;5011351;28;20381;-77
2020/12/10 12:50:05;;;;;;;8.83;6.67;;;3.90;99.90;;;;;;5010581;28;20442;-77
2020/12/10 12:52:31;;;;;;;8.48;6.28;;;3.10;99.90;;;;;;5011356;28;20393;-77
2020/12/10 12:54:57;;;;;;;8.80;6.88;;;3.40;99.90;;;;;;5010468;28;20381;-77
2020/12/10 12:57:23;;;;;;;8.05;6.13;;;3.60;99.90;;;;;;5010838;28;20401;-77
2020/12/10 12:59:49;;;;;;;9.63;6.87;;;3.70;99.90;;;;;;5010063;28;20436;-78
2020/12/10 13:02:15;;;;;;;8.15;6.72;;;3.80;99.90;;;;;;5009840;28;20388;-77
2020/12/10 13:04:41;;;;;;;10.15;7.10;;;3.40;99.90;;;;;;5010418;28;20385;-77